Time;durP1;ratioP1;P1;durP2;ratioP2;P2;SDS_P1;SDS_P2;PMS_P1;PMS_P2;Temp;Humidity;BMP_temperature;BMP_pressure;BME280_temperature;BME280_humidity;BME280_pressure;Samples;Min_cycle;Max_cycle;Signal;HPM_P1;HPM_P2
2021/12/23 00:00:02;;;;;;;16.40;8.35;;;-5.70;68.40;;;;;;5038845;28;20025;-45
2021/12/23 00:02:27;;;;;;;15.00;7.65;;;-5.70;68.40;;;;;;5038705;28;20030;-44
2021/12/23 00:04:53;;;;;;;15.18;7.93;;;-5.70;68.60;;;;;;5038720;28;20140;-44
2021/12/23 00:07:19;;;;;;;17.98;8.02;;;-5.70;68.70;;;;;;5038688;28;20352;-48
2021/12/23 00:12:29;;;;;;;15.52;7.75;;;-5.70;68.50;;;;;;5038612;28;20076;-46
2021/12/23 00:14:55;;;;;;;15.90;7.82;;;-5.80;68.30;;;;;;5038603;28;20057;-46
2021/12/23 00:17:27;;;;;;;14.15;7.03;;;-5.80;68.50;;;;;;5038625;28;20037;-48
2021/12/23 00:23:22;;;;;;;17.00;7.18;;;-5.80;68.60;;;;;;5038588;28;20037;-47
2021/12/23 00:25:51;;;;;;;15.43;7.05;;;-5.90;68.70;;;;;;5055821;28;20041;-50
2021/12/23 00:28:16;;;;;;;14.27;6.68;;;-5.90;68.80;;;;;;5055984;28;20542;-46
2021/12/23 00:30:42;;;;;;;14.88;7.03;;;-6.00;69.00;;;;;;5047205;28;20109;-47
2021/12/23 00:33:08;;;;;;;14.60;7.10;;;-6.00;69.10;;;;;;5038466;28;20406;-44
2021/12/23 00:35:33;;;;;;;13.45;7.57;;;-6.00;69.20;;;;;;5038343;28;20041;-46
2021/12/23 00:38:04;;;;;;;12.48;6.78;;;-6.00;69.30;;;;;;5037941;28;20030;-43
2021/12/23 00:40:30;;;;;;;15.38;6.82;;;-6.00;69.30;;;;;;5038284;28;20040;-46
2021/12/23 00:42:56;;;;;;;14.80;7.40;;;-6.10;69.30;;;;;;5038236;28;20037;-46
2021/12/23 00:45:22;;;;;;;12.95;7.07;;;-6.10;69.40;;;;;;5037964;28;20418;-46
2021/12/23 00:47:48;;;;;;;13.88;7.03;;;-6.10;69.50;;;;;;5037935;28;20055;-44
2021/12/23 00:50:13;;;;;;;15.98;7.55;;;-6.00;69.60;;;;;;5037764;28;20040;-46
2021/12/23 00:52:40;;;;;;;14.93;7.00;;;-6.00;69.60;;;;;;5037766;28;20029;-46
2021/12/23 00:55:09;;;;;;;13.40;7.22;;;-6.00;70.10;;;;;;5037478;28;20057;-43
2021/12/23 00:57:40;;;;;;;13.57;7.03;;;-6.10;69.50;;;;;;5037854;28;20040;-46
2021/12/23 01:00:15;;;;;;;11.20;6.40;;;-6.10;69.60;;;;;;5037663;28;20103;-47
2021/12/23 01:02:44;;;;;;;12.73;6.60;;;-6.00;69.60;;;;;;5037995;28;20465;-46
2021/12/23 01:05:10;;;;;;;13.75;6.93;;;-6.00;69.50;;;;;;5037519;28;20078;-51
2021/12/23 01:07:36;;;;;;;26.65;11.10;;;-6.10;69.40;;;;;;5036439;28;20057;-43
2021/12/23 01:10:02;;;;;;;14.20;6.30;;;-6.10;69.40;;;;;;5037572;28;20093;-46
2021/12/23 01:12:34;;;;;;;12.40;6.05;;;-6.00;69.40;;;;;;5037718;28;20307;-46
2021/12/23 01:15:13;;;;;;;14.43;6.63;;;-6.10;69.20;;;;;;5037493;28;20034;-49
2021/12/23 01:20:26;;;;;;;;;;;-6.10;69.20;;;;;;5037496;28;20080;-46
2021/12/23 01:22:52;;;;;;;;;;;-6.00;69.20;;;;;;5037968;28;20293;-43
2021/12/23 01:25:18;;;;;;;12.85;6.30;;;-6.10;69.10;;;;;;5037221;28;19966;-47
2021/12/23 01:27:43;;;;;;;11.95;6.30;;;-6.10;69.10;;;;;;5036983;28;20108;-46
2021/12/23 01:30:10;;;;;;;9.65;5.32;;;-6.10;69.20;;;;;;5036769;28;20033;-43
2021/12/23 01:32:35;;;;;;;28.85;9.40;;;-6.10;69.10;;;;;;5037244;28;20330;-49
2021/12/23 01:35:01;;;;;;;11.75;6.05;;;-6.10;69.20;;;;;;5036920;28;20036;-45
2021/12/23 01:37:26;;;;;;;11.50;6.15;;;-6.20;69.10;;;;;;5036866;28;20038;-43
2021/12/23 01:39:52;;;;;;;12.35;6.18;;;-6.20;69.20;;;;;;5036838;28;20038;-50
2021/12/23 01:42:18;;;;;;;11.13;5.45;;;-6.20;69.30;;;;;;5036791;28;20067;-45
2021/12/23 01:44:43;;;;;;;12.18;6.35;;;-6.20;69.20;;;;;;5036721;28;20108;-50
2021/12/23 01:47:09;;;;;;;11.38;5.80;;;-6.20;69.10;;;;;;5036787;28;20033;-43
2021/12/23 01:49:35;;;;;;;12.68;6.28;;;-6.20;69.20;;;;;;5036437;28;20413;-46
2021/12/23 01:52:00;;;;;;;15.38;6.30;;;-6.30;69.10;;;;;;5036876;28;20033;-45
2021/12/23 01:54:26;;;;;;;10.63;5.32;;;-6.30;69.10;;;;;;5036531;28;20033;-46
2021/12/23 01:56:52;;;;;;;10.05;4.97;;;-6.30;69.10;;;;;;5036403;28;20057;-43
2021/12/23 01:59:18;;;;;;;9.32;5.05;;;-6.30;69.10;;;;;;5036646;28;20041;-47
2021/12/23 02:01:44;;;;;;;12.57;5.07;;;-6.30;69.00;;;;;;5036767;28;20044;-48
2021/12/23 02:04:10;;;;;;;10.45;5.32;;;-6.30;69.00;;;;;;5036396;28;20041;-48
2021/12/23 02:06:35;;;;;;;12.95;5.38;;;-6.30;69.00;;;;;;5036641;28;20359;-46
2021/12/23 02:09:01;;;;;;;11.88;5.75;;;-6.20;69.00;;;;;;5036134;28;20091;-46
2021/12/23 02:11:27;;;;;;;9.65;5.15;;;-6.20;69.20;;;;;;5036592;28;20026;-45
2021/12/23 02:13:53;;;;;;;11.75;4.93;;;-6.20;68.50;;;;;;5036500;28;20409;-43
2021/12/23 02:16:18;;;;;;;9.68;4.60;;;-6.20;68.10;;;;;;5036345;28;20105;-47
2021/12/23 02:18:44;;;;;;;8.48;4.35;;;-6.20;67.90;;;;;;5035862;28;20449;-46
2021/12/23 02:21:10;;;;;;;10.15;4.07;;;-6.20;66.80;;;;;;5036216;28;20322;-43
2021/12/23 02:23:36;;;;;;;10.25;4.55;;;-6.20;66.50;;;;;;5036049;28;20112;-44
2021/12/23 02:26:02;;;;;;;9.30;4.55;;;-6.20;66.30;;;;;;5035922;28;20037;-48
2021/12/23 02:28:28;;;;;;;7.40;4.03;;;-6.20;65.60;;;;;;5036155;28;20026;-43
2021/12/23 02:30:54;;;;;;;9.57;4.47;;;-6.20;65.60;;;;;;5036309;28;20037;-46
2021/12/23 02:33:23;;;;;;;9.05;4.30;;;-6.30;64.40;;;;;;5036347;28;20032;-46
2021/12/23 02:35:51;;;;;;;6.82;4.00;;;-6.30;64.70;;;;;;5035968;28;20397;-48
2021/12/23 02:38:16;;;;;;;8.45;4.22;;;-6.30;64.80;;;;;;5035984;28;20033;-43
2021/12/23 02:40:43;;;;;;;7.82;4.68;;;-6.30;64.80;;;;;;5035530;28;20038;-43
2021/12/23 02:43:15;;;;;;;8.50;4.18;;;-6.30;65.10;;;;;;5036003;28;20029;-51
2021/12/23 02:45:42;;;;;;;9.27;4.53;;;-6.20;65.10;;;;;;5035401;28;20048;-45
2021/12/23 02:48:19;;;;;;;8.45;4.60;;;-6.20;65.20;;;;;;5035889;28;20033;-47
2021/12/23 02:50:47;;;;;;;8.45;4.60;;;-6.20;64.90;;;;;;5035601;28;20037;-43
2021/12/23 02:53:14;;;;;;;8.88;5.22;;;-6.10;64.90;;;;;;5035655;28;20104;-43
2021/12/23 02:55:39;;;;;;;8.32;4.38;;;-6.10;64.80;;;;;;5035304;28;20088;-48
2021/12/23 02:58:06;;;;;;;8.45;4.60;;;-6.10;64.80;;;;;;5035957;28;20030;-45
2021/12/23 03:00:33;;;;;;;10.20;5.13;;;-6.10;64.60;;;;;;5035992;28;20041;-45
2021/12/23 03:02:58;;;;;;;10.07;4.63;;;-6.10;64.90;;;;;;5035778;28;20033;-46
2021/12/23 03:05:24;;;;;;;8.50;5.25;;;-6.10;64.80;;;;;;5035753;28;20048;-43
2021/12/23 03:07:50;;;;;;;9.02;5.07;;;-6.10;64.70;;;;;;5035913;28;20033;-46
2021/12/23 03:10:16;;;;;;;9.13;5.30;;;-6.10;65.40;;;;;;5035094;28;20438;-43
2021/12/23 03:12:42;;;;;;;9.07;4.97;;;-6.10;64.80;;;;;;5035993;28;20030;-44
2021/12/23 03:15:08;;;;;;;7.43;4.55;;;-6.10;64.80;;;;;;5035555;28;20037;-48
2021/12/23 03:17:34;;;;;;;9.27;4.72;;;-6.10;65.00;;;;;;5035502;28;20267;-46
2021/12/23 03:20:00;;;;;;;9.57;5.40;;;-6.10;65.10;;;;;;5035270;28;20041;-47
2021/12/23 03:22:26;;;;;;;10.18;5.60;;;-6.20;65.20;;;;;;5035886;28;20033;-45
2021/12/23 03:24:52;;;;;;;11.13;5.22;;;-6.20;65.40;;;;;;5035540;28;20499;-43
2021/12/23 03:27:17;;;;;;;10.88;4.95;;;-6.10;65.70;;;;;;5035955;28;20368;-46
2021/12/23 03:29:43;;;;;;;10.00;5.40;;;-6.10;65.80;;;;;;5036338;28;20029;-46
2021/12/23 03:32:09;;;;;;;9.32;5.43;;;-6.10;65.90;;;;;;5039670;28;20029;-43
2021/12/23 03:34:35;;;;;;;11.82;5.00;;;-6.00;65.90;;;;;;5039154;28;20041;-47
2021/12/23 03:37:00;;;;;;;9.43;5.03;;;-6.10;65.80;;;;;;5039335;28;20044;-50
2021/12/23 03:39:26;;;;;;;8.70;5.28;;;-6.10;65.90;;;;;;5039170;28;20033;-47
2021/12/23 03:41:52;;;;;;;11.70;5.10;;;-6.10;66.10;;;;;;5039108;28;20037;-45
2021/12/23 03:44:17;;;;;;;11.98;5.60;;;-6.00;66.10;;;;;;5038921;28;20044;-46
2021/12/23 03:46:43;;;;;;;8.85;5.07;;;-6.00;66.20;;;;;;5039204;28;20033;-48
2021/12/23 03:49:09;;;;;;;10.02;5.35;;;-6.00;66.30;;;;;;5039119;28;20052;-47
2021/12/23 03:51:35;;;;;;;12.23;5.75;;;-6.00;66.30;;;;;;5039300;28;20317;-44
2021/12/23 03:54:02;;;;;;;8.98;4.85;;;-6.00;66.40;;;;;;5038648;28;20036;-50
2021/12/23 03:56:28;;;;;;;10.45;6.07;;;-6.00;66.50;;;;;;5037742;28;20057;-44
2021/12/23 03:58:55;;;;;;;13.10;5.78;;;-6.10;66.50;;;;;;5038762;28;20036;-46
2021/12/23 04:01:22;;;;;;;12.15;6.03;;;-6.10;66.70;;;;;;5039007;28;20315;-46
2021/12/23 04:03:50;;;;;;;10.63;6.22;;;-6.10;66.80;;;;;;5038348;28;20044;-46
2021/12/23 04:06:16;;;;;;;10.65;6.00;;;-6.10;66.90;;;;;;5038589;28;20061;-43
2021/12/23 04:08:41;;;;;;;13.60;5.93;;;-6.00;67.00;;;;;;5038764;28;20067;-44
2021/12/23 04:11:07;;;;;;;13.68;5.97;;;-6.00;67.20;;;;;;5038582;28;20402;-43
2021/12/23 04:13:33;;;;;;;12.32;6.13;;;-6.00;67.10;;;;;;5038518;28;20033;-45
2021/12/23 04:15:58;;;;;;;12.02;6.07;;;-6.00;67.20;;;;;;5038733;28;20041;-44
2021/12/23 04:18:24;;;;;;;12.68;6.32;;;-6.00;67.20;;;;;;5038379;28;20112;-43
2021/12/23 04:20:55;;;;;;;11.82;6.90;;;-5.90;67.20;;;;;;5038379;28;20448;-43
2021/12/23 04:23:23;;;;;;;16.40;6.85;;;-5.90;67.20;;;;;;5038306;28;20040;-42
2021/12/23 04:25:49;;;;;;;11.38;6.38;;;-5.90;67.20;;;;;;5037816;28;20064;-44
2021/12/23 04:28:15;;;;;;;12.15;6.38;;;-5.90;67.90;;;;;;5038523;28;20061;-43
2021/12/23 04:30:41;;;;;;;14.75;7.03;;;-5.90;67.30;;;;;;5036816;28;20040;-43
2021/12/23 04:33:07;;;;;;;12.32;6.45;;;-5.90;67.30;;;;;;5038543;28;20030;-46
2021/12/23 04:35:33;;;;;;;10.52;6.03;;;-5.90;67.30;;;;;;5038361;28;20034;-43
2021/12/23 04:37:59;;;;;;;12.10;7.13;;;-5.90;67.40;;;;;;5037974;28;20034;-46
2021/12/23 04:40:24;;;;;;;13.98;7.20;;;-6.00;67.30;;;;;;5037465;28;20042;-48
2021/12/23 04:42:50;;;;;;;12.85;7.85;;;-6.00;67.50;;;;;;5038200;28;20040;-49
2021/12/23 04:45:16;;;;;;;17.10;7.43;;;-6.00;67.50;;;;;;5038095;28;20056;-51
2021/12/23 04:47:43;;;;;;;14.38;7.15;;;-6.00;67.60;;;;;;5037881;28;20033;-43
2021/12/23 04:50:11;;;;;;;14.02;6.80;;;-6.00;67.70;;;;;;5037971;28;20026;-48
2021/12/23 04:52:37;;;;;;;11.60;6.47;;;-6.00;67.80;;;;;;5038039;28;20033;-43
2021/12/23 04:55:04;;;;;;;16.40;7.40;;;-6.00;67.80;;;;;;5037404;28;20115;-46
2021/12/23 04:57:29;;;;;;;13.98;7.15;;;-6.00;67.90;;;;;;5037667;28;20045;-46
2021/12/23 04:59:55;;;;;;;13.40;7.32;;;-6.00;67.90;;;;;;5037692;28;20038;-47
2021/12/23 05:02:21;;;;;;;14.88;7.18;;;-6.00;67.90;;;;;;5037755;28;20126;-46
2021/12/23 05:04:50;;;;;;;17.98;8.63;;;-6.00;68.00;;;;;;5037467;28;20033;-46
2021/12/23 05:07:19;;;;;;;15.07;7.60;;;-6.00;68.10;;;;;;5037518;28;20440;-46
2021/12/23 05:09:45;;;;;;;15.32;7.93;;;-6.00;68.20;;;;;;5037502;28;20087;-45
2021/12/23 05:12:11;;;;;;;18.65;7.38;;;-6.00;68.20;;;;;;5037687;28;20041;-43
2021/12/23 05:14:37;;;;;;;16.08;7.60;;;-6.00;68.20;;;;;;5036010;28;20601;-43
2021/12/23 05:17:02;;;;;;;13.35;6.82;;;-6.00;68.10;;;;;;5037160;28;20045;-49
2021/12/23 05:19:28;;;;;;;13.02;7.70;;;-6.00;68.10;;;;;;5037360;28;20421;-41
2021/12/23 05:21:54;;;;;;;14.68;7.85;;;-6.00;68.30;;;;;;5036890;28;20445;-44
2021/12/23 05:24:19;;;;;;;18.10;8.00;;;-6.00;68.20;;;;;;5036890;28;20036;-43
2021/12/23 05:26:45;;;;;;;24.52;10.10;;;-6.00;68.40;;;;;;5037101;28;20044;-49
2021/12/23 05:29:11;;;;;;;21.83;9.90;;;-6.00;68.40;;;;;;5036917;28;20107;-46
2021/12/23 05:31:38;;;;;;;24.95;11.10;;;-5.90;68.50;;;;;;5036861;28;20053;-42
2021/12/23 05:34:04;;;;;;;18.95;9.15;;;-5.90;68.50;;;;;;5036964;28;20025;-45
2021/12/23 05:36:30;;;;;;;26.75;11.25;;;-5.90;68.40;;;;;;5037229;28;20414;-45
2021/12/23 05:38:55;;;;;;;25.63;10.93;;;-5.80;69.00;;;;;;5036737;28;20116;-46
2021/12/23 05:41:26;;;;;;;35.08;11.85;;;-5.80;68.70;;;;;;5036904;28;20048;-46
2021/12/23 05:43:52;;;;;;;31.38;13.85;;;-5.70;68.60;;;;;;5036633;28;20099;-44
2021/12/23 05:46:18;;;;;;;20.77;9.80;;;-5.70;68.60;;;;;;5036840;28;20342;-48
2021/12/23 05:48:43;;;;;;;20.40;9.98;;;-5.70;68.40;;;;;;5036482;28;20018;-46
2021/12/23 05:51:09;;;;;;;30.88;11.68;;;-5.70;68.50;;;;;;5036230;28;20402;-43
2021/12/23 05:53:35;;;;;;;19.17;9.23;;;-5.60;68.60;;;;;;5035542;28;20075;-45
2021/12/23 05:56:00;;;;;;;21.50;10.48;;;-5.50;68.60;;;;;;5036124;28;20350;-44
2021/12/23 05:58:26;;;;;;;19.38;9.32;;;-5.50;68.40;;;;;;5036380;28;20037;-44
2021/12/23 06:00:53;;;;;;;15.35;7.70;;;-5.50;68.40;;;;;;5039670;28;20148;-43
2021/12/23 06:03:19;;;;;;;17.92;8.15;;;-5.50;68.20;;;;;;5043456;28;20025;-43
2021/12/23 06:05:45;;;;;;;15.73;9.15;;;-5.50;67.90;;;;;;5035958;28;20029;-45
2021/12/23 06:08:10;;;;;;;16.20;8.65;;;-5.50;68.10;;;;;;5036479;28;20394;-43
2021/12/23 06:10:36;;;;;;;17.40;8.88;;;-5.60;68.00;;;;;;5035813;28;20303;-46
2021/12/23 06:13:02;;;;;;;18.10;8.57;;;-5.60;68.10;;;;;;5036029;28;20036;-46
2021/12/23 06:15:27;;;;;;;15.23;8.45;;;-5.60;68.00;;;;;;5036272;28;20108;-42
2021/12/23 06:17:53;;;;;;;16.30;7.10;;;-5.60;67.80;;;;;;5035905;28;20125;-43
2021/12/23 06:20:19;;;;;;;15.57;8.82;;;-5.60;67.90;;;;;;5036233;28;20328;-45
2021/12/23 06:22:44;;;;;;;21.50;8.20;;;-5.60;68.00;;;;;;5036307;28;20091;-47
2021/12/23 06:25:12;;;;;;;17.48;8.02;;;-5.70;67.90;;;;;;5035973;28;20309;-43
2021/12/23 06:27:39;;;;;;;17.60;7.72;;;-5.70;67.90;;;;;;5035806;28;20021;-43
2021/12/23 06:30:19;;;;;;;16.83;7.72;;;-5.70;67.90;;;;;;5035820;28;20037;-43
2021/12/23 06:32:55;;;;;;;11.63;6.65;;;-5.70;67.90;;;;;;5035943;28;20037;-45
2021/12/23 06:35:26;;;;;;;13.75;7.22;;;-5.80;67.90;;;;;;5035936;28;20040;-47
2021/12/23 06:37:52;;;;;;;15.15;6.82;;;-5.80;67.80;;;;;;5036236;28;20029;-43
2021/12/23 06:40:18;;;;;;;15.82;9.25;;;-5.80;67.80;;;;;;5035721;28;20025;-42
2021/12/23 06:42:44;;;;;;;15.85;8.70;;;-5.80;68.00;;;;;;5042184;28;20310;-43
2021/12/23 06:45:11;;;;;;;12.52;6.88;;;-5.90;68.10;;;;;;5054767;28;20036;-46
2021/12/23 06:47:37;;;;;;;13.93;7.47;;;-5.90;68.20;;;;;;5055479;28;20317;-42
2021/12/23 06:50:07;;;;;;;14.80;7.43;;;-5.80;68.30;;;;;;5055594;28;20406;-45
2021/12/23 06:52:33;;;;;;;14.82;8.05;;;-5.80;68.00;;;;;;5055895;28;20033;-45
2021/12/23 06:54:59;;;;;;;16.35;7.20;;;-5.80;68.10;;;;;;5055145;28;20353;-43
2021/12/23 06:57:27;;;;;;;14.18;7.45;;;-5.80;68.20;;;;;;5055593;28;20033;-43
2021/12/23 06:59:52;;;;;;;16.90;8.05;;;-5.80;68.10;;;;;;5052964;28;20313;-42
2021/12/23 07:02:18;;;;;;;16.23;7.82;;;-5.70;68.10;;;;;;5055189;28;20040;-47
2021/12/23 07:04:45;;;;;;;15.88;8.40;;;-5.70;68.00;;;;;;5057020;28;20040;-45
2021/12/23 07:07:18;;;;;;;15.65;7.97;;;-5.70;68.00;;;;;;5059219;28;20050;-43
2021/12/23 07:09:44;;;;;;;16.90;8.38;;;-5.70;68.00;;;;;;5059060;28;20104;-46
2021/12/23 07:12:12;;;;;;;14.68;7.38;;;-5.70;67.90;;;;;;5059657;28;20388;-43
2021/12/23 07:14:38;;;;;;;14.50;7.53;;;-5.60;68.00;;;;;;5059146;28;20275;-41
2021/12/23 07:17:06;;;;;;;16.50;9.15;;;-5.60;67.90;;;;;;5059147;28;20040;-42
2021/12/23 07:19:32;;;;;;;11.55;6.68;;;-5.70;67.80;;;;;;5059097;28;20033;-46
2021/12/23 07:21:58;;;;;;;12.35;6.55;;;-5.60;68.10;;;;;;5059326;28;20033;-46
2021/12/23 07:24:23;;;;;;;14.10;7.32;;;-5.60;68.00;;;;;;5058757;28;20309;-41
2021/12/23 07:26:49;;;;;;;14.48;7.50;;;-5.60;68.50;;;;;;5058796;28;20112;-47
2021/12/23 07:29:15;;;;;;;30.45;12.70;;;-5.60;68.10;;;;;;5058668;28;20079;-46
2021/12/23 07:31:41;;;;;;;15.30;8.60;;;-5.50;68.10;;;;;;5059314;28;20308;-43
2021/12/23 07:34:06;;;;;;;15.82;7.63;;;-5.50;68.20;;;;;;5058574;28;20037;-46
2021/12/23 07:36:33;;;;;;;12.93;6.85;;;-5.50;68.00;;;;;;5058838;28;20033;-44
2021/12/23 07:38:59;;;;;;;16.05;7.60;;;-5.40;68.00;;;;;;5058278;28;20025;-41
2021/12/23 07:41:29;;;;;;;14.70;7.28;;;-5.30;67.90;;;;;;5058096;28;20041;-43
2021/12/23 07:43:59;;;;;;;14.00;7.55;;;-5.30;67.80;;;;;;5046590;28;20044;-47
2021/12/23 07:46:27;;;;;;;14.02;7.13;;;-5.20;67.50;;;;;;5058809;28;20068;-42
2021/12/23 07:48:53;;;;;;;15.13;6.80;;;-5.20;67.40;;;;;;5058575;28;20061;-50
2021/12/23 07:51:19;;;;;;;17.45;9.05;;;-5.10;67.20;;;;;;5058841;28;20051;-45
2021/12/23 07:53:45;;;;;;;16.27;8.23;;;-5.10;67.30;;;;;;5049416;28;20112;-44
2021/12/23 07:56:11;;;;;;;14.02;7.40;;;-5.10;67.40;;;;;;5038286;28;20410;-48
2021/12/23 07:58:36;;;;;;;15.52;7.32;;;-5.00;67.30;;;;;;5038309;28;20030;-50
2021/12/23 08:01:02;;;;;;;13.20;7.65;;;-5.00;66.90;;;;;;5038171;28;20429;-49
2021/12/23 08:03:28;;;;;;;15.25;7.90;;;-5.00;66.90;;;;;;5038485;28;20091;-44
2021/12/23 08:05:53;;;;;;;14.25;6.75;;;-5.10;66.70;;;;;;5037845;28;20029;-44
2021/12/23 08:08:19;;;;;;;14.98;6.88;;;-5.10;66.40;;;;;;5038371;28;20022;-43
2021/12/23 08:10:46;;;;;;;21.08;9.02;;;-5.20;66.30;;;;;;5038145;28;20322;-44
2021/12/23 08:13:11;;;;;;;13.55;7.40;;;-5.20;66.40;;;;;;5037825;28;20021;-48
2021/12/23 08:15:37;;;;;;;22.67;9.30;;;-5.20;66.20;;;;;;5037289;28;20091;-46
2021/12/23 08:18:03;;;;;;;17.63;8.80;;;-5.20;66.20;;;;;;5037826;28;20108;-43
2021/12/23 08:20:29;;;;;;;19.58;9.82;;;-5.20;66.10;;;;;;5038222;28;20044;-44
2021/12/23 08:22:56;;;;;;;17.63;7.43;;;-5.20;66.10;;;;;;5037857;28;20367;-45
2021/12/23 08:25:24;;;;;;;17.67;7.80;;;-5.20;65.80;;;;;;5038127;28;20036;-44
2021/12/23 08:27:50;;;;;;;16.92;8.02;;;-5.20;65.50;;;;;;5037716;28;20420;-43
2021/12/23 08:30:20;;;;;;;14.70;7.32;;;-5.20;65.30;;;;;;5043239;28;20041;-44
2021/12/23 08:32:47;;;;;;;17.52;8.55;;;-5.20;65.10;;;;;;5043048;28;20410;-46
2021/12/23 08:35:13;;;;;;;16.50;8.57;;;-5.30;65.10;;;;;;5038080;28;20104;-45
2021/12/23 08:37:44;;;;;;;18.02;9.13;;;-5.30;65.30;;;;;;5041955;28;20077;-43
2021/12/23 08:40:10;;;;;;;16.48;8.43;;;-5.30;65.10;;;;;;5057982;28;20029;-45
2021/12/23 08:42:36;;;;;;;29.38;11.77;;;-5.40;65.20;;;;;;5047393;28;20118;-44
2021/12/23 08:45:04;;;;;;;23.45;9.55;;;-5.40;65.20;;;;;;5037237;28;20048;-47
2021/12/23 08:47:30;;;;;;;20.20;8.48;;;-5.40;64.80;;;;;;5037549;28;20030;-45
2021/12/23 08:49:57;;;;;;;21.00;10.40;;;-5.40;64.30;;;;;;5036970;28;20087;-46
2021/12/23 08:52:22;;;;;;;23.27;10.45;;;-5.40;64.10;;;;;;5037505;28;20034;-44
2021/12/23 08:54:48;;;;;;;21.50;9.77;;;-5.40;64.30;;;;;;5036995;28;20041;-46
2021/12/23 08:57:14;;;;;;;26.63;10.77;;;-5.40;64.20;;;;;;5037612;28;20056;-44
2021/12/23 08:59:40;;;;;;;17.85;8.90;;;-5.40;64.30;;;;;;5037177;28;20041;-48
2021/12/23 09:02:08;;;;;;;21.05;9.32;;;-5.30;64.30;;;;;;5037350;28;20123;-46
2021/12/23 09:04:34;;;;;;;23.10;10.05;;;-5.30;63.80;;;;;;5036701;28;20088;-46
2021/12/23 09:07:01;;;;;;;17.65;9.00;;;-5.20;63.50;;;;;;5037202;28;20053;-43
2021/12/23 09:09:30;;;;;;;19.10;8.25;;;-5.20;63.10;;;;;;5038690;28;20033;-46
2021/12/23 09:11:56;;;;;;;20.40;9.13;;;-5.20;62.90;;;;;;5056985;28;20360;-45
2021/12/23 09:14:22;;;;;;;19.80;9.07;;;-5.20;62.40;;;;;;5056773;28;20226;-45
2021/12/23 09:16:47;;;;;;;16.73;8.00;;;-5.30;62.20;;;;;;5056840;28;20025;-44
2021/12/23 09:19:14;;;;;;;17.52;8.02;;;-5.30;62.20;;;;;;5056652;28;20025;-46
2021/12/23 09:21:40;;;;;;;18.42;7.55;;;-5.30;62.20;;;;;;5057068;28;20112;-44
2021/12/23 09:24:06;;;;;;;16.48;7.88;;;-5.30;62.00;;;;;;5056456;28;20033;-43
2021/12/23 09:26:34;;;;;;;35.80;17.58;;;-5.40;61.60;;;;;;5056617;28;20318;-46
2021/12/23 09:34:11;;;;;;;14.13;8.30;;;-5.40;61.90;;;;;;5056721;28;20345;-45
2021/12/23 09:36:38;;;;;;;21.63;11.25;;;-5.40;61.80;;;;;;5056653;28;20416;-43
2021/12/23 09:39:08;;;;;;;16.35;7.72;;;-5.40;62.00;;;;;;5056040;28;20093;-46
2021/12/23 09:41:37;;;;;;;15.40;7.43;;;-5.40;62.00;;;;;;5056690;28;20048;-43
2021/12/23 09:44:04;;;;;;;13.60;7.03;;;-5.40;61.70;;;;;;5056105;28;20036;-44
2021/12/23 09:46:30;;;;;;;14.25;7.97;;;-5.40;61.70;;;;;;5056557;28;20041;-42
2021/12/23 09:48:58;;;;;;;19.70;9.48;;;-5.30;61.70;;;;;;5056323;28;20035;-51
2021/12/23 09:51:24;;;;;;;13.05;7.13;;;-5.30;61.60;;;;;;5056548;28;20389;-43
2021/12/23 09:53:57;;;;;;;13.00;6.18;;;-5.20;61.60;;;;;;5056377;28;20037;-45
2021/12/23 09:56:24;;;;;;;13.85;6.22;;;-5.10;61.40;;;;;;5056160;28;20484;-43
2021/12/23 09:58:50;;;;;;;12.30;5.82;;;-5.10;60.80;;;;;;5055882;28;20029;-44
2021/12/23 10:01:16;;;;;;;10.52;5.28;;;-5.10;60.60;;;;;;5056473;28;20337;-47
2021/12/23 10:03:42;;;;;;;10.13;5.38;;;-5.10;60.70;;;;;;5053694;28;20106;-45
2021/12/23 10:06:07;;;;;;;10.70;5.78;;;-5.00;60.80;;;;;;5055831;28;20263;-42
2021/12/23 10:08:33;;;;;;;8.80;4.55;;;-5.00;60.80;;;;;;5055624;28;20021;-45
2021/12/23 10:11:12;;;;;;;12.75;6.22;;;-4.90;60.70;;;;;;5055735;28;20065;-45
2021/12/23 10:38:29;;;;;;;12.50;6.45;;;-4.50;59.20;;;;;;5055369;28;20094;-44
2021/12/23 10:41:03;;;;;;;9.65;5.07;;;-4.50;59.10;;;;;;5055148;28;20037;-45
2021/12/23 10:43:42;;;;;;;8.98;4.90;;;-4.40;59.30;;;;;;5055276;28;20025;-44
2021/12/23 10:46:15;;;;;;;11.50;5.07;;;-4.30;59.20;;;;;;5055574;28;20380;-42
2021/12/23 10:48:50;;;;;;;10.75;6.30;;;-4.30;59.00;;;;;;5054060;28;20025;-47
2021/12/23 10:51:19;;;;;;;11.05;5.63;;;-4.20;58.90;;;;;;5055141;28;20091;-43
2021/12/23 10:59:12;;;;;;;11.25;4.90;;;-4.00;57.90;;;;;;5055297;28;20055;-42
2021/12/23 11:02:23;;;;;;;8.27;5.03;;;-3.90;57.40;;;;;;5055709;28;20033;-42
2021/12/23 11:05:07;;;;;;;11.43;5.22;;;-3.90;56.70;;;;;;5054532;28;20167;-43
2021/12/23 11:07:54;;;;;;;10.80;5.13;;;-3.90;56.80;;;;;;5055712;28;20029;-42
2021/12/23 11:39:03;;;;;;;10.18;5.53;;;-3.80;56.40;;;;;;5035160;28;20036;-47
2021/12/23 11:43:58;;;;;;;10.90;5.07;;;-3.70;56.40;;;;;;5034844;28;20029;-45
2021/12/23 11:46:35;;;;;;;12.73;6.47;;;-3.70;55.80;;;;;;5035131;28;20123;-44
2021/12/23 11:49:06;;;;;;;13.60;5.80;;;-3.70;55.80;;;;;;5034781;28;20425;-43
2021/12/23 11:51:55;;;;;;;12.25;6.15;;;-3.80;55.40;;;;;;5037145;28;20418;-43
2021/12/23 11:54:38;;;;;;;15.30;6.15;;;-3.70;56.00;;;;;;5038162;28;20125;-46
2021/12/23 11:57:18;;;;;;;10.98;5.38;;;-3.70;56.10;;;;;;5038980;28;20083;-42
2021/12/23 12:00:01;;;;;;;12.57;5.80;;;-3.70;55.90;;;;;;5037759;28;20159;-44
2021/12/23 12:02:29;;;;;;;10.95;5.15;;;-3.70;55.60;;;;;;5047334;28;20460;-42
2021/12/23 12:05:00;;;;;;;9.60;4.95;;;-3.70;55.10;;;;;;5058197;28;20037;-42
2021/12/23 12:07:27;;;;;;;10.43;4.80;;;-3.70;55.30;;;;;;5056277;28;20459;-44
2021/12/23 12:10:08;;;;;;;9.68;5.20;;;-3.80;55.30;;;;;;5058247;28;20033;-42
2021/12/23 12:12:54;;;;;;;9.25;5.47;;;-3.80;55.50;;;;;;5058406;28;20036;-46
2021/12/23 12:15:34;;;;;;;12.15;5.93;;;-3.90;55.70;;;;;;5058004;28;20024;-48
2021/12/23 12:18:03;;;;;;;10.65;4.97;;;-4.00;55.60;;;;;;5057778;28;20421;-46
2021/12/23 12:20:58;;;;;;;13.25;5.30;;;-4.00;55.50;;;;;;5057439;28;20033;-42
2021/12/23 12:23:30;;;;;;;7.88;4.60;;;-4.10;56.30;;;;;;5057880;28;20221;-43
2021/12/23 12:25:58;;;;;;;13.50;5.55;;;-4.10;55.70;;;;;;5057438;28;20029;-47
2021/12/23 12:28:30;;;;;;;9.25;5.18;;;-4.20;55.60;;;;;;5058013;28;20056;-43
2021/12/23 12:31:05;;;;;;;13.63;5.90;;;-4.30;55.40;;;;;;5057930;28;20048;-44
2021/12/23 12:33:33;;;;;;;10.05;5.90;;;-4.40;55.90;;;;;;5057679;28;20040;-46
2021/12/23 12:36:02;;;;;;;10.02;5.68;;;-4.50;56.20;;;;;;5058050;28;20033;-43
2021/12/23 12:38:34;;;;;;;11.75;6.35;;;-4.50;56.40;;;;;;5057563;28;20214;-42
2021/12/23 12:41:05;;;;;;;13.35;6.40;;;-4.50;56.60;;;;;;5057658;28;20044;-41
2021/12/23 12:46:09;;;;;;;14.15;5.97;;;-4.50;56.70;;;;;;5057469;28;20426;-44
2021/12/23 12:48:58;;;;;;;14.57;6.20;;;-4.60;56.50;;;;;;5056094;28;20020;-42
2021/12/23 12:51:28;;;;;;;14.93;7.30;;;-4.60;56.40;;;;;;5057676;28;20033;-43
2021/12/23 12:54:02;;;;;;;10.63;6.03;;;-4.70;56.40;;;;;;5057143;28;20345;-43
2021/12/23 12:56:29;;;;;;;11.02;6.82;;;-4.70;56.30;;;;;;5057181;28;20064;-42
2021/12/23 12:58:55;;;;;;;13.68;7.10;;;-4.80;56.40;;;;;;5056756;28;20060;-42
2021/12/23 13:01:35;;;;;;;16.60;7.93;;;-4.90;56.40;;;;;;5057361;28;20032;-44
2021/12/23 13:04:02;;;;;;;13.27;7.78;;;-4.90;56.50;;;;;;5056923;28;20029;-46
2021/12/23 13:06:38;;;;;;;14.93;7.20;;;-5.00;56.50;;;;;;5057475;28;20033;-46
2021/12/23 13:09:13;;;;;;;10.60;6.50;;;-5.00;56.60;;;;;;5056510;28;20055;-44
2021/12/23 13:11:48;;;;;;;13.73;7.18;;;-5.10;56.50;;;;;;5057049;28;20558;-45
2021/12/23 13:14:21;;;;;;;12.50;7.10;;;-5.20;57.10;;;;;;5057061;28;20029;-45
2021/12/23 13:16:56;;;;;;;12.63;6.05;;;-5.30;56.70;;;;;;5056690;28;20025;-44
2021/12/23 13:19:27;;;;;;;17.55;6.72;;;-5.30;57.00;;;;;;5056590;28;20377;-45
2021/12/23 13:21:56;;;;;;;13.32;6.13;;;-5.40;57.20;;;;;;5056601;28;20059;-45
2021/12/23 13:24:23;;;;;;;12.15;6.60;;;-5.40;57.50;;;;;;5056488;28;20029;-44
2021/12/23 13:26:50;;;;;;;12.57;6.38;;;-5.40;57.60;;;;;;5056325;28;20444;-45
2021/12/23 13:29:17;;;;;;;12.60;6.68;;;-5.40;57.70;;;;;;5056577;28;20071;-45
2021/12/23 13:31:45;;;;;;;17.10;8.30;;;-5.40;57.70;;;;;;5056007;28;20072;-45
2021/12/23 13:34:18;;;;;;;12.73;6.80;;;-5.40;57.60;;;;;;5056186;28;20031;-45
2021/12/23 13:36:46;;;;;;;18.83;6.90;;;-5.40;57.70;;;;;;5052079;28;20037;-45
2021/12/23 13:39:15;;;;;;;16.15;6.80;;;-5.50;57.80;;;;;;5046913;28;20033;-43
2021/12/23 13:41:46;;;;;;;13.23;6.35;;;-5.50;57.90;;;;;;5036590;28;20048;-49
2021/12/23 13:44:14;;;;;;;21.05;8.90;;;-5.50;57.90;;;;;;5036148;28;20417;-44
2021/12/23 13:47:03;;;;;;;16.05;7.22;;;-5.60;58.00;;;;;;5035920;28;20163;-43
2021/12/23 13:49:32;;;;;;;19.00;7.85;;;-5.60;58.10;;;;;;5035763;28;20049;-45
2021/12/23 13:51:57;;;;;;;15.43;8.02;;;-5.60;58.10;;;;;;5036079;28;20082;-45
2021/12/23 13:54:23;;;;;;;16.38;6.32;;;-5.70;58.00;;;;;;5035856;28;20040;-47
2021/12/23 13:56:51;;;;;;;20.65;10.63;;;-5.70;58.30;;;;;;5035651;28;20172;-48
2021/12/23 13:59:27;;;;;;;20.63;10.27;;;-5.80;58.20;;;;;;5035773;28;20037;-44